sensor_id;sensor_type;location;lat;lon;timestamp;P1;durP1;ratioP1;P2;durP2;ratioP2
66609;SDS011;53468;48.276;14.416;2024-03-08T00:04:22;57.80;;;27.80;;
66609;SDS011;53468;48.276;14.416;2024-03-08T00:09:24;50.83;;;26.10;;
66609;SDS011;53468;48.276;14.416;2024-03-08T00:14:29;56.38;;;28.40;;
66609;SDS011;53468;48.276;14.416;2024-03-08T00:19:31;51.70;;;25.65;;
66609;SDS011;53468;48.276;14.416;2024-03-08T00:24:33;57.45;;;26.38;;
66609;SDS011;53468;48.276;14.416;2024-03-08T00:29:37;63.63;;;29.63;;
66609;SDS011;53468;48.276;14.416;2024-03-08T00:34:40;59.63;;;26.83;;
66609;SDS011;53468;48.276;14.416;2024-03-08T00:39:42;62.33;;;29.20;;
66609;SDS011;53468;48.276;14.416;2024-03-08T00:44:45;57.70;;;28.00;;
66609;SDS011;53468;48.276;14.416;2024-03-08T00:49:48;57.22;;;28.27;;
66609;SDS011;53468;48.276;14.416;2024-03-08T00:54:50;58.50;;;28.17;;
66609;SDS011;53468;48.276;14.416;2024-03-08T00:59:54;71.22;;;32.13;;
66609;SDS011;53468;48.276;14.416;2024-03-08T01:04:56;67.13;;;29.80;;
66609;SDS011;53468;48.276;14.416;2024-03-08T01:09:59;65.35;;;30.73;;
66609;SDS011;53468;48.276;14.416;2024-03-08T01:15:03;67.60;;;28.75;;
66609;SDS011;53468;48.276;14.416;2024-03-08T01:20:07;63.58;;;26.77;;
66609;SDS011;53468;48.276;14.416;2024-03-08T01:25:11;56.15;;;28.08;;
66609;SDS011;53468;48.276;14.416;2024-03-08T01:30:15;57.90;;;26.92;;
66609;SDS011;53468;48.276;14.416;2024-03-08T01:35:17;59.85;;;26.73;;
66609;SDS011;53468;48.276;14.416;2024-03-08T01:40:21;63.10;;;29.13;;
66609;SDS011;53468;48.276;14.416;2024-03-08T01:45:25;59.28;;;27.25;;
66609;SDS011;53468;48.276;14.416;2024-03-08T01:50:27;65.20;;;28.83;;
66609;SDS011;53468;48.276;14.416;2024-03-08T01:55:29;58.70;;;26.50;;
66609;SDS011;53468;48.276;14.416;2024-03-08T02:00:33;60.30;;;27.05;;
66609;SDS011;53468;48.276;14.416;2024-03-08T02:05:36;57.50;;;28.23;;
66609;SDS011;53468;48.276;14.416;2024-03-08T02:10:41;59.90;;;28.17;;
66609;SDS011;53468;48.276;14.416;2024-03-08T02:15:54;68.18;;;29.73;;
66609;SDS011;53468;48.276;14.416;2024-03-08T02:21:00;60.97;;;27.10;;
66609;SDS011;53468;48.276;14.416;2024-03-08T02:26:03;58.80;;;27.35;;
66609;SDS011;53468;48.276;14.416;2024-03-08T02:31:07;66.65;;;27.85;;
66609;SDS011;53468;48.276;14.416;2024-03-08T02:36:10;59.03;;;26.42;;
66609;SDS011;53468;48.276;14.416;2024-03-08T02:41:13;59.00;;;26.30;;
66609;SDS011;53468;48.276;14.416;2024-03-08T02:46:15;55.25;;;27.70;;
66609;SDS011;53468;48.276;14.416;2024-03-08T02:51:18;58.58;;;27.08;;
66609;SDS011;53468;48.276;14.416;2024-03-08T02:56:20;63.53;;;26.58;;
66609;SDS011;53468;48.276;14.416;2024-03-08T03:01:23;53.00;;;25.58;;
66609;SDS011;53468;48.276;14.416;2024-03-08T03:06:27;57.58;;;24.40;;
66609;SDS011;53468;48.276;14.416;2024-03-08T03:11:29;56.50;;;26.08;;
66609;SDS011;53468;48.276;14.416;2024-03-08T03:16:31;53.70;;;26.20;;
66609;SDS011;53468;48.276;14.416;2024-03-08T03:21:36;58.63;;;24.75;;
66609;SDS011;53468;48.276;14.416;2024-03-08T03:26:38;52.60;;;25.25;;
66609;SDS011;53468;48.276;14.416;2024-03-08T03:31:40;58.58;;;25.42;;
66609;SDS011;53468;48.276;14.416;2024-03-08T03:36:44;58.65;;;26.77;;
66609;SDS011;53468;48.276;14.416;2024-03-08T03:41:47;57.97;;;26.50;;
66609;SDS011;53468;48.276;14.416;2024-03-08T03:46:52;55.67;;;25.02;;
66609;SDS011;53468;48.276;14.416;2024-03-08T03:51:55;55.17;;;24.92;;
66609;SDS011;53468;48.276;14.416;2024-03-08T03:56:57;57.65;;;26.95;;
66609;SDS011;53468;48.276;14.416;2024-03-08T04:02:00;56.50;;;24.23;;
66609;SDS011;53468;48.276;14.416;2024-03-08T04:07:05;53.67;;;24.85;;
66609;SDS011;53468;48.276;14.416;2024-03-08T04:12:07;54.38;;;25.52;;
66609;SDS011;53468;48.276;14.416;2024-03-08T04:17:09;59.90;;;28.13;;
66609;SDS011;53468;48.276;14.416;2024-03-08T04:22:13;52.72;;;23.70;;
66609;SDS011;53468;48.276;14.416;2024-03-08T04:27:17;59.25;;;26.50;;
66609;SDS011;53468;48.276;14.416;2024-03-08T04:32:19;53.55;;;24.55;;
66609;SDS011;53468;48.276;14.416;2024-03-08T04:37:24;56.88;;;23.23;;
66609;SDS011;53468;48.276;14.416;2024-03-08T04:42:26;58.08;;;24.23;;
66609;SDS011;53468;48.276;14.416;2024-03-08T04:47:30;60.78;;;25.23;;
66609;SDS011;53468;48.276;14.416;2024-03-08T04:52:33;54.53;;;24.58;;
66609;SDS011;53468;48.276;14.416;2024-03-08T04:57:36;47.47;;;23.75;;
66609;SDS011;53468;48.276;14.416;2024-03-08T05:02:38;52.20;;;25.70;;
66609;SDS011;53468;48.276;14.416;2024-03-08T05:07:41;50.30;;;22.85;;
66609;SDS011;53468;48.276;14.416;2024-03-08T05:12:45;52.17;;;24.17;;
66609;SDS011;53468;48.276;14.416;2024-03-08T05:17:47;52.90;;;23.08;;
66609;SDS011;53468;48.276;14.416;2024-03-08T05:22:51;49.00;;;23.70;;
66609;SDS011;53468;48.276;14.416;2024-03-08T05:27:53;50.63;;;24.67;;
66609;SDS011;53468;48.276;14.416;2024-03-08T05:32:55;53.78;;;24.15;;
66609;SDS011;53468;48.276;14.416;2024-03-08T05:37:59;47.38;;;23.77;;
66609;SDS011;53468;48.276;14.416;2024-03-08T05:43:02;56.08;;;23.42;;
66609;SDS011;53468;48.276;14.416;2024-03-08T05:48:04;54.75;;;24.30;;
66609;SDS011;53468;48.276;14.416;2024-03-08T05:53:09;50.28;;;24.02;;
66609;SDS011;53468;48.276;14.416;2024-03-08T05:58:11;62.83;;;25.10;;
66609;SDS011;53468;48.276;14.416;2024-03-08T06:03:13;52.78;;;24.55;;
66609;SDS011;53468;48.276;14.416;2024-03-08T06:08:16;51.40;;;24.05;;
66609;SDS011;53468;48.276;14.416;2024-03-08T06:13:19;43.55;;;22.95;;
66609;SDS011;53468;48.276;14.416;2024-03-08T06:18:21;48.85;;;22.20;;
66609;SDS011;53468;48.276;14.416;2024-03-08T06:23:25;54.97;;;24.17;;
66609;SDS011;53468;48.276;14.416;2024-03-08T06:28:27;47.53;;;22.50;;
66609;SDS011;53468;48.276;14.416;2024-03-08T06:33:29;52.65;;;23.70;;
66609;SDS011;53468;48.276;14.416;2024-03-08T06:38:34;49.75;;;22.58;;
66609;SDS011;53468;48.276;14.416;2024-03-08T06:43:36;52.40;;;24.83;;
66609;SDS011;53468;48.276;14.416;2024-03-08T06:48:38;49.00;;;23.05;;
66609;SDS011;53468;48.276;14.416;2024-03-08T06:53:42;47.45;;;21.77;;
66609;SDS011;53468;48.276;14.416;2024-03-08T06:58:44;47.95;;;23.27;;
66609;SDS011;53468;48.276;14.416;2024-03-08T07:03:46;45.40;;;22.85;;
66609;SDS011;53468;48.276;14.416;2024-03-08T07:08:50;42.63;;;20.92;;
66609;SDS011;53468;48.276;14.416;2024-03-08T07:13:52;42.58;;;20.63;;
66609;SDS011;53468;48.276;14.416;2024-03-08T07:18:54;41.40;;;20.23;;
66609;SDS011;53468;48.276;14.416;2024-03-08T07:24:00;44.88;;;21.50;;
66609;SDS011;53468;48.276;14.416;2024-03-08T07:29:19;39.47;;;19.85;;
66609;SDS011;53468;48.276;14.416;2024-03-08T07:34:21;40.80;;;21.00;;
66609;SDS011;53468;48.276;14.416;2024-03-08T07:39:24;40.40;;;19.48;;
66609;SDS011;53468;48.276;14.416;2024-03-08T07:44:26;43.17;;;20.15;;
66609;SDS011;53468;48.276;14.416;2024-03-08T07:49:29;37.30;;;18.95;;
66609;SDS011;53468;48.276;14.416;2024-03-08T07:54:33;40.25;;;20.73;;
66609;SDS011;53468;48.276;14.416;2024-03-08T07:59:36;35.92;;;19.65;;
66609;SDS011;53468;48.276;14.416;2024-03-08T08:04:38;37.38;;;21.02;;
66609;SDS011;53468;48.276;14.416;2024-03-08T08:09:41;32.97;;;16.40;;
66609;SDS011;53468;48.276;14.416;2024-03-08T08:14:43;33.95;;;17.75;;
66609;SDS011;53468;48.276;14.416;2024-03-08T08:19:46;28.75;;;16.98;;
66609;SDS011;53468;48.276;14.416;2024-03-08T08:24:50;31.35;;;16.45;;
66609;SDS011;53468;48.276;14.416;2024-03-08T08:29:52;30.45;;;16.00;;
66609;SDS011;53468;48.276;14.416;2024-03-08T08:34:54;22.85;;;12.35;;
66609;SDS011;53468;48.276;14.416;2024-03-08T08:39:58;26.52;;;14.68;;
66609;SDS011;53468;48.276;14.416;2024-03-08T08:45:06;22.23;;;12.68;;
66609;SDS011;53468;48.276;14.416;2024-03-08T08:50:09;19.88;;;11.90;;
66609;SDS011;53468;48.276;14.416;2024-03-08T08:55:14;17.77;;;11.02;;
66609;SDS011;53468;48.276;14.416;2024-03-08T09:00:21;16.98;;;10.70;;
66609;SDS011;53468;48.276;14.416;2024-03-08T09:05:27;15.65;;;10.75;;
66609;SDS011;53468;48.276;14.416;2024-03-08T09:10:30;22.40;;;10.82;;
66609;SDS011;53468;48.276;14.416;2024-03-08T09:15:34;17.02;;;10.68;;
66609;SDS011;53468;48.276;14.416;2024-03-08T09:20:36;21.75;;;12.52;;
66609;SDS011;53468;48.276;14.416;2024-03-08T09:25:40;19.40;;;10.50;;
66609;SDS011;53468;48.276;14.416;2024-03-08T09:30:42;18.40;;;10.80;;
66609;SDS011;53468;48.276;14.416;2024-03-08T09:35:44;15.77;;;9.43;;
66609;SDS011;53468;48.276;14.416;2024-03-08T09:40:49;22.35;;;12.15;;
66609;SDS011;53468;48.276;14.416;2024-03-08T09:45:53;21.15;;;11.27;;
66609;SDS011;53468;48.276;14.416;2024-03-08T09:50:56;19.23;;;11.25;;
66609;SDS011;53468;48.276;14.416;2024-03-08T09:55:59;16.80;;;10.80;;
66609;SDS011;53468;48.276;14.416;2024-03-08T10:01:04;17.92;;;10.00;;
66609;SDS011;53468;48.276;14.416;2024-03-08T10:06:06;17.52;;;9.52;;
66609;SDS011;53468;48.276;14.416;2024-03-08T10:11:12;14.18;;;9.38;;
66609;SDS011;53468;48.276;14.416;2024-03-08T10:16:16;13.50;;;7.80;;
66609;SDS011;53468;48.276;14.416;2024-03-08T10:21:19;15.00;;;8.75;;
66609;SDS011;53468;48.276;14.416;2024-03-08T10:26:24;14.95;;;10.05;;
66609;SDS011;53468;48.276;14.416;2024-03-08T10:31:26;15.90;;;9.15;;
66609;SDS011;53468;48.276;14.416;2024-03-08T10:36:28;16.15;;;9.80;;
66609;SDS011;53468;48.276;14.416;2024-03-08T10:41:34;14.30;;;8.75;;
66609;SDS011;53468;48.276;14.416;2024-03-08T10:46:43;12.02;;;7.28;;
66609;SDS011;53468;48.276;14.416;2024-03-08T10:51:55;13.27;;;8.27;;
66609;SDS011;53468;48.276;14.416;2024-03-08T10:57:00;14.43;;;8.35;;
66609;SDS011;53468;48.276;14.416;2024-03-08T11:02:05;13.88;;;8.32;;
66609;SDS011;53468;48.276;14.416;2024-03-08T11:33:12;12.95;;;7.40;;
66609;SDS011;53468;48.276;14.416;2024-03-08T11:38:15;14.65;;;8.23;;
66609;SDS011;53468;48.276;14.416;2024-03-08T11:43:19;12.52;;;7.50;;
66609;SDS011;53468;48.276;14.416;2024-03-08T11:48:24;14.00;;;8.23;;
66609;SDS011;53468;48.276;14.416;2024-03-08T11:53:26;15.32;;;8.43;;
66609;SDS011;53468;48.276;14.416;2024-03-08T11:58:28;14.40;;;8.07;;
66609;SDS011;53468;48.276;14.416;2024-03-08T12:03:32;14.55;;;7.53;;
66609;SDS011;53468;48.276;14.416;2024-03-08T12:08:35;13.43;;;7.25;;
66609;SDS011;53468;48.276;14.416;2024-03-08T12:13:37;12.52;;;7.10;;
66609;SDS011;53468;48.276;14.416;2024-03-08T12:24:06;13.50;;;7.85;;
66609;SDS011;53468;48.276;14.416;2024-03-08T12:29:16;14.45;;;7.78;;
66609;SDS011;53468;48.276;14.416;2024-03-08T12:34:20;14.63;;;8.37;;
66609;SDS011;53468;48.276;14.416;2024-03-08T12:39:24;13.70;;;7.82;;
66609;SDS011;53468;48.276;14.416;2024-03-08T12:44:27;11.57;;;7.03;;
66609;SDS011;53468;48.276;14.416;2024-03-08T12:54:41;12.38;;;6.85;;
66609;SDS011;53468;48.276;14.416;2024-03-08T13:04:53;10.40;;;6.32;;
66609;SDS011;53468;48.276;14.416;2024-03-08T13:09:59;10.48;;;6.53;;
66609;SDS011;53468;48.276;14.416;2024-03-08T13:15:01;12.43;;;7.20;;
66609;SDS011;53468;48.276;14.416;2024-03-08T13:20:05;10.15;;;6.18;;
66609;SDS011;53468;48.276;14.416;2024-03-08T13:30:21;10.77;;;6.22;;
66609;SDS011;53468;48.276;14.416;2024-03-08T13:35:25;10.00;;;5.70;;
66609;SDS011;53468;48.276;14.416;2024-03-08T13:40:28;11.15;;;6.43;;
66609;SDS011;53468;48.276;14.416;2024-03-08T13:45:32;10.75;;;6.10;;
66609;SDS011;53468;48.276;14.416;2024-03-08T13:50:34;10.20;;;6.20;;
66609;SDS011;53468;48.276;14.416;2024-03-08T13:55:36;11.85;;;6.50;;
66609;SDS011;53468;48.276;14.416;2024-03-08T14:00:40;11.27;;;5.80;;
66609;SDS011;53468;48.276;14.416;2024-03-08T14:05:44;10.52;;;5.90;;
66609;SDS011;53468;48.276;14.416;2024-03-08T14:10:46;8.40;;;5.57;;
66609;SDS011;53468;48.276;14.416;2024-03-08T14:15:52;10.65;;;6.43;;
66609;SDS011;53468;48.276;14.416;2024-03-08T14:20:54;10.70;;;4.90;;
66609;SDS011;53468;48.276;14.416;2024-03-08T14:25:56;11.95;;;6.53;;
66609;SDS011;53468;48.276;14.416;2024-03-08T14:31:00;10.68;;;6.32;;
66609;SDS011;53468;48.276;14.416;2024-03-08T14:36:03;12.98;;;6.63;;
66609;SDS011;53468;48.276;14.416;2024-03-08T14:46:18;11.40;;;6.80;;
66609;SDS011;53468;48.276;14.416;2024-03-08T14:51:21;14.73;;;7.47;;
66609;SDS011;53468;48.276;14.416;2024-03-08T14:56:25;9.80;;;4.90;;
66609;SDS011;53468;48.276;14.416;2024-03-08T15:01:28;8.10;;;4.70;;
66609;SDS011;53468;48.276;14.416;2024-03-08T15:06:33;9.27;;;4.88;;
66609;SDS011;53468;48.276;14.416;2024-03-08T15:11:36;10.35;;;6.60;;
66609;SDS011;53468;48.276;14.416;2024-03-08T15:16:40;10.85;;;5.80;;
66609;SDS011;53468;48.276;14.416;2024-03-08T15:21:43;10.85;;;6.93;;
66609;SDS011;53468;48.276;14.416;2024-03-08T15:26:48;9.55;;;5.93;;
66609;SDS011;53468;48.276;14.416;2024-03-08T17:10:58;13.70;;;6.53;;
66609;SDS011;53468;48.276;14.416;2024-03-08T17:16:01;11.45;;;6.05;;
66609;SDS011;53468;48.276;14.416;2024-03-08T17:21:03;10.93;;;6.90;;
66609;SDS011;53468;48.276;14.416;2024-03-08T17:26:08;10.77;;;5.65;;
66609;SDS011;53468;48.276;14.416;2024-03-08T17:31:10;11.43;;;5.97;;
66609;SDS011;53468;48.276;14.416;2024-03-08T17:36:12;9.88;;;6.47;;
66609;SDS011;53468;48.276;14.416;2024-03-08T17:41:17;12.25;;;6.10;;
66609;SDS011;53468;48.276;14.416;2024-03-08T17:46:22;11.93;;;7.10;;
66609;SDS011;53468;48.276;14.416;2024-03-08T18:06:57;13.75;;;6.70;;
66609;SDS011;53468;48.276;14.416;2024-03-08T18:11:59;10.95;;;5.93;;
66609;SDS011;53468;48.276;14.416;2024-03-08T18:17:02;13.90;;;6.93;;
66609;SDS011;53468;48.276;14.416;2024-03-08T18:22:07;10.85;;;6.50;;
66609;SDS011;53468;48.276;14.416;2024-03-08T18:27:10;12.38;;;6.88;;
66609;SDS011;53468;48.276;14.416;2024-03-08T18:32:12;12.63;;;6.05;;
66609;SDS011;53468;48.276;14.416;2024-03-08T18:37:16;12.05;;;6.40;;
66609;SDS011;53468;48.276;14.416;2024-03-08T18:42:18;10.30;;;5.68;;
66609;SDS011;53468;48.276;14.416;2024-03-08T18:47:20;9.40;;;6.47;;
66609;SDS011;53468;48.276;14.416;2024-03-08T18:52:24;8.75;;;5.57;;
66609;SDS011;53468;48.276;14.416;2024-03-08T18:57:26;10.10;;;6.00;;
66609;SDS011;53468;48.276;14.416;2024-03-08T19:02:28;9.60;;;5.07;;
66609;SDS011;53468;48.276;14.416;2024-03-08T19:07:34;9.43;;;5.07;;
66609;SDS011;53468;48.276;14.416;2024-03-08T19:12:36;10.25;;;5.90;;
66609;SDS011;53468;48.276;14.416;2024-03-08T19:17:43;11.15;;;6.07;;
66609;SDS011;53468;48.276;14.416;2024-03-08T19:22:49;10.40;;;5.38;;
66609;SDS011;53468;48.276;14.416;2024-03-08T19:27:54;10.88;;;6.18;;
66609;SDS011;53468;48.276;14.416;2024-03-08T19:32:58;9.55;;;4.93;;
66609;SDS011;53468;48.276;14.416;2024-03-08T19:38:03;10.40;;;5.25;;
66609;SDS011;53468;48.276;14.416;2024-03-08T19:43:07;10.20;;;5.47;;
66609;SDS011;53468;48.276;14.416;2024-03-08T19:48:10;9.23;;;4.88;;
66609;SDS011;53468;48.276;14.416;2024-03-08T19:53:17;9.68;;;5.47;;
66609;SDS011;53468;48.276;14.416;2024-03-08T19:58:19;8.98;;;4.47;;
66609;SDS011;53468;48.276;14.416;2024-03-08T20:03:21;8.35;;;4.57;;
66609;SDS011;53468;48.276;14.416;2024-03-08T20:08:26;8.80;;;5.03;;
66609;SDS011;53468;48.276;14.416;2024-03-08T20:13:29;8.30;;;4.78;;
66609;SDS011;53468;48.276;14.416;2024-03-08T20:18:33;8.43;;;4.88;;
66609;SDS011;53468;48.276;14.416;2024-03-08T20:23:37;8.80;;;4.32;;
66609;SDS011;53468;48.276;14.416;2024-03-08T20:28:41;8.60;;;4.50;;
66609;SDS011;53468;48.276;14.416;2024-03-08T20:33:51;7.07;;;4.68;;
66609;SDS011;53468;48.276;14.416;2024-03-08T20:38:54;7.25;;;4.20;;
66609;SDS011;53468;48.276;14.416;2024-03-08T20:43:57;7.20;;;4.20;;
66609;SDS011;53468;48.276;14.416;2024-03-08T20:49:00;7.35;;;3.88;;
66609;SDS011;53468;48.276;14.416;2024-03-08T20:54:04;6.28;;;3.72;;
66609;SDS011;53468;48.276;14.416;2024-03-08T20:59:06;9.15;;;3.95;;
66609;SDS011;53468;48.276;14.416;2024-03-08T21:04:10;7.75;;;4.18;;
66609;SDS011;53468;48.276;14.416;2024-03-08T21:09:14;7.30;;;3.75;;
66609;SDS011;53468;48.276;14.416;2024-03-08T21:14:16;7.50;;;4.53;;
66609;SDS011;53468;48.276;14.416;2024-03-08T21:19:18;7.45;;;4.80;;
66609;SDS011;53468;48.276;14.416;2024-03-08T21:24:22;6.43;;;4.20;;
66609;SDS011;53468;48.276;14.416;2024-03-08T21:29:24;6.32;;;3.78;;
66609;SDS011;53468;48.276;14.416;2024-03-08T21:34:28;8.43;;;3.90;;
66609;SDS011;53468;48.276;14.416;2024-03-08T21:39:34;8.52;;;4.47;;
66609;SDS011;53468;48.276;14.416;2024-03-08T21:44:36;6.72;;;3.53;;
66609;SDS011;53468;48.276;14.416;2024-03-08T21:49:38;9.23;;;4.13;;
66609;SDS011;53468;48.276;14.416;2024-03-08T21:54:46;7.20;;;4.32;;
66609;SDS011;53468;48.276;14.416;2024-03-08T21:59:48;7.45;;;4.13;;
66609;SDS011;53468;48.276;14.416;2024-03-08T22:04:52;6.85;;;3.72;;
66609;SDS011;53468;48.276;14.416;2024-03-08T22:09:55;7.15;;;3.92;;
66609;SDS011;53468;48.276;14.416;2024-03-08T22:14:59;9.13;;;4.45;;
66609;SDS011;53468;48.276;14.416;2024-03-08T22:20:02;7.40;;;4.25;;
66609;SDS011;53468;48.276;14.416;2024-03-08T22:25:12;9.23;;;4.57;;
66609;SDS011;53468;48.276;14.416;2024-03-08T22:30:16;9.25;;;4.60;;
66609;SDS011;53468;48.276;14.416;2024-03-08T22:35:19;7.68;;;4.22;;
66609;SDS011;53468;48.276;14.416;2024-03-08T22:40:24;8.10;;;3.90;;
66609;SDS011;53468;48.276;14.416;2024-03-08T22:45:27;8.32;;;4.53;;
66609;SDS011;53468;48.276;14.416;2024-03-08T22:50:31;10.07;;;5.00;;
66609;SDS011;53468;48.276;14.416;2024-03-08T22:55:34;8.25;;;4.68;;
66609;SDS011;53468;48.276;14.416;2024-03-08T23:00:37;7.95;;;4.50;;
66609;SDS011;53468;48.276;14.416;2024-03-08T23:05:56;8.65;;;4.55;;
66609;SDS011;53468;48.276;14.416;2024-03-08T23:11:00;8.00;;;4.90;;
66609;SDS011;53468;48.276;14.416;2024-03-08T23:16:04;9.35;;;4.35;;
66609;SDS011;53468;48.276;14.416;2024-03-08T23:21:07;8.90;;;4.45;;
66609;SDS011;53468;48.276;14.416;2024-03-08T23:26:11;8.30;;;5.07;;
66609;SDS011;53468;48.276;14.416;2024-03-08T23:31:15;8.85;;;4.40;;
66609;SDS011;53468;48.276;14.416;2024-03-08T23:36:17;9.85;;;6.13;;
66609;SDS011;53468;48.276;14.416;2024-03-08T23:41:21;10.70;;;4.88;;
66609;SDS011;53468;48.276;14.416;2024-03-08T23:46:24;9.05;;;4.60;;
66609;SDS011;53468;48.276;14.416;2024-03-08T23:51:26;11.60;;;5.38;;
66609;SDS011;53468;48.276;14.416;2024-03-08T23:56:30;10.18;;;4.88;;
